sensor_id;sensor_type;location;lat;lon;timestamp;P1;durP1;ratioP1;P2;durP2;ratioP2
37873;SDS011;23709;48.078;11.684;2023-08-01T00:00:26;6.68;;;4.10;;
37873;SDS011;23709;48.078;11.684;2023-08-01T00:02:59;6.80;;;3.75;;
37873;SDS011;23709;48.078;11.684;2023-08-01T00:05:31;5.78;;;3.22;;
37873;SDS011;23709;48.078;11.684;2023-08-01T00:08:07;5.50;;;3.15;;
37873;SDS011;23709;48.078;11.684;2023-08-01T00:10:40;4.72;;;3.25;;
37873;SDS011;23709;48.078;11.684;2023-08-01T00:13:12;6.63;;;3.10;;
37873;SDS011;23709;48.078;11.684;2023-08-01T00:15:45;4.82;;;3.42;;
37873;SDS011;23709;48.078;11.684;2023-08-01T00:18:35;5.35;;;3.30;;
37873;SDS011;23709;48.078;11.684;2023-08-01T00:21:08;5.68;;;3.28;;
37873;SDS011;23709;48.078;11.684;2023-08-01T00:23:41;4.45;;;3.25;;
37873;SDS011;23709;48.078;11.684;2023-08-01T00:26:14;6.25;;;3.00;;
37873;SDS011;23709;48.078;11.684;2023-08-01T00:28:46;6.43;;;3.30;;
37873;SDS011;23709;48.078;11.684;2023-08-01T00:31:18;5.28;;;3.40;;
37873;SDS011;23709;48.078;11.684;2023-08-01T00:33:51;6.65;;;3.17;;
37873;SDS011;23709;48.078;11.684;2023-08-01T00:36:23;8.20;;;3.50;;
37873;SDS011;23709;48.078;11.684;2023-08-01T00:38:55;6.90;;;3.25;;
37873;SDS011;23709;48.078;11.684;2023-08-01T00:41:28;6.97;;;3.45;;
37873;SDS011;23709;48.078;11.684;2023-08-01T00:44:00;5.93;;;3.28;;
37873;SDS011;23709;48.078;11.684;2023-08-01T00:46:32;5.38;;;3.30;;
37873;SDS011;23709;48.078;11.684;2023-08-01T00:49:04;5.80;;;3.60;;
37873;SDS011;23709;48.078;11.684;2023-08-01T00:51:37;5.55;;;3.50;;
37873;SDS011;23709;48.078;11.684;2023-08-01T00:54:09;6.82;;;3.80;;
37873;SDS011;23709;48.078;11.684;2023-08-01T00:56:41;5.95;;;3.92;;
37873;SDS011;23709;48.078;11.684;2023-08-01T00:59:15;4.93;;;3.20;;
37873;SDS011;23709;48.078;11.684;2023-08-01T01:01:47;6.13;;;3.92;;
37873;SDS011;23709;48.078;11.684;2023-08-01T01:04:20;6.47;;;4.07;;
37873;SDS011;23709;48.078;11.684;2023-08-01T01:06:54;8.68;;;4.35;;
37873;SDS011;23709;48.078;11.684;2023-08-01T01:09:31;6.65;;;3.70;;
37873;SDS011;23709;48.078;11.684;2023-08-01T01:12:04;5.30;;;3.85;;
37873;SDS011;23709;48.078;11.684;2023-08-01T01:17:10;6.68;;;3.55;;
37873;SDS011;23709;48.078;11.684;2023-08-01T01:19:43;5.15;;;3.75;;
37873;SDS011;23709;48.078;11.684;2023-08-01T01:22:15;5.57;;;4.00;;
37873;SDS011;23709;48.078;11.684;2023-08-01T01:24:48;6.05;;;4.03;;
37873;SDS011;23709;48.078;11.684;2023-08-01T01:27:21;6.93;;;3.85;;
37873;SDS011;23709;48.078;11.684;2023-08-01T01:29:54;6.82;;;3.85;;
37873;SDS011;23709;48.078;11.684;2023-08-01T01:32:27;8.05;;;3.85;;
37873;SDS011;23709;48.078;11.684;2023-08-01T01:37:35;6.15;;;3.80;;
37873;SDS011;23709;48.078;11.684;2023-08-01T01:40:07;8.57;;;4.63;;
37873;SDS011;23709;48.078;11.684;2023-08-01T01:42:40;5.45;;;3.60;;
37873;SDS011;23709;48.078;11.684;2023-08-01T01:45:12;7.00;;;3.30;;
37873;SDS011;23709;48.078;11.684;2023-08-01T01:47:44;7.82;;;4.13;;
37873;SDS011;23709;48.078;11.684;2023-08-01T01:50:17;6.57;;;3.72;;
37873;SDS011;23709;48.078;11.684;2023-08-01T01:52:50;6.60;;;4.30;;
37873;SDS011;23709;48.078;11.684;2023-08-01T01:55:23;6.80;;;4.22;;
37873;SDS011;23709;48.078;11.684;2023-08-01T01:57:55;8.60;;;4.07;;
37873;SDS011;23709;48.078;11.684;2023-08-01T02:00:28;6.35;;;4.18;;
37873;SDS011;23709;48.078;11.684;2023-08-01T02:05:34;5.57;;;3.78;;
37873;SDS011;23709;48.078;11.684;2023-08-01T02:08:06;5.97;;;3.85;;
37873;SDS011;23709;48.078;11.684;2023-08-01T02:10:39;7.30;;;4.32;;
37873;SDS011;23709;48.078;11.684;2023-08-01T02:13:12;8.10;;;4.28;;
37873;SDS011;23709;48.078;11.684;2023-08-01T02:15:44;8.95;;;4.10;;
37873;SDS011;23709;48.078;11.684;2023-08-01T02:18:16;7.88;;;4.45;;
37873;SDS011;23709;48.078;11.684;2023-08-01T02:20:48;9.43;;;4.00;;
37873;SDS011;23709;48.078;11.684;2023-08-01T02:23:21;8.67;;;5.10;;
37873;SDS011;23709;48.078;11.684;2023-08-01T02:25:54;7.00;;;4.13;;
37873;SDS011;23709;48.078;11.684;2023-08-01T02:28:27;5.85;;;4.00;;
37873;SDS011;23709;48.078;11.684;2023-08-01T02:31:00;5.68;;;4.15;;
37873;SDS011;23709;48.078;11.684;2023-08-01T02:33:32;6.95;;;4.45;;
37873;SDS011;23709;48.078;11.684;2023-08-01T02:36:05;6.20;;;4.05;;
37873;SDS011;23709;48.078;11.684;2023-08-01T02:38:37;7.78;;;3.97;;
37873;SDS011;23709;48.078;11.684;2023-08-01T02:41:10;6.57;;;4.22;;
37873;SDS011;23709;48.078;11.684;2023-08-01T02:43:42;7.50;;;3.78;;
37873;SDS011;23709;48.078;11.684;2023-08-01T02:46:14;8.40;;;3.85;;
37873;SDS011;23709;48.078;11.684;2023-08-01T02:48:48;5.95;;;4.05;;
37873;SDS011;23709;48.078;11.684;2023-08-01T02:51:20;8.13;;;4.70;;
37873;SDS011;23709;48.078;11.684;2023-08-01T02:53:52;8.88;;;4.28;;
37873;SDS011;23709;48.078;11.684;2023-08-01T02:56:25;6.38;;;4.25;;
37873;SDS011;23709;48.078;11.684;2023-08-01T02:58:59;9.10;;;4.60;;
37873;SDS011;23709;48.078;11.684;2023-08-01T03:01:32;7.43;;;4.20;;
37873;SDS011;23709;48.078;11.684;2023-08-01T03:04:04;7.80;;;4.07;;
37873;SDS011;23709;48.078;11.684;2023-08-01T03:06:38;7.50;;;4.00;;
37873;SDS011;23709;48.078;11.684;2023-08-01T03:09:11;9.10;;;3.80;;
37873;SDS011;23709;48.078;11.684;2023-08-01T03:11:46;9.25;;;4.25;;
37873;SDS011;23709;48.078;11.684;2023-08-01T03:14:19;6.88;;;4.15;;
37873;SDS011;23709;48.078;11.684;2023-08-01T03:16:51;7.40;;;4.40;;
37873;SDS011;23709;48.078;11.684;2023-08-01T03:19:23;8.20;;;4.07;;
37873;SDS011;23709;48.078;11.684;2023-08-01T03:21:56;8.15;;;4.40;;
37873;SDS011;23709;48.078;11.684;2023-08-01T03:24:29;15.73;;;4.32;;
37873;SDS011;23709;48.078;11.684;2023-08-01T03:27:01;6.38;;;4.20;;
37873;SDS011;23709;48.078;11.684;2023-08-01T03:29:35;7.78;;;4.60;;
37873;SDS011;23709;48.078;11.684;2023-08-01T03:32:12;9.05;;;4.28;;
37873;SDS011;23709;48.078;11.684;2023-08-01T03:34:45;8.02;;;4.75;;
37873;SDS011;23709;48.078;11.684;2023-08-01T03:37:17;8.55;;;4.28;;
37873;SDS011;23709;48.078;11.684;2023-08-01T03:39:50;4.75;;;3.78;;
37873;SDS011;23709;48.078;11.684;2023-08-01T03:42:22;7.00;;;4.13;;
37873;SDS011;23709;48.078;11.684;2023-08-01T03:44:54;12.85;;;4.82;;
37873;SDS011;23709;48.078;11.684;2023-08-01T03:47:27;10.10;;;4.30;;
37873;SDS011;23709;48.078;11.684;2023-08-01T03:49:59;7.20;;;4.45;;
37873;SDS011;23709;48.078;11.684;2023-08-01T03:52:32;7.95;;;4.35;;
37873;SDS011;23709;48.078;11.684;2023-08-01T03:55:04;6.43;;;4.38;;
37873;SDS011;23709;48.078;11.684;2023-08-01T03:57:37;8.60;;;4.37;;
37873;SDS011;23709;48.078;11.684;2023-08-01T04:00:10;10.50;;;4.78;;
37873;SDS011;23709;48.078;11.684;2023-08-01T04:02:48;9.45;;;5.00;;
37873;SDS011;23709;48.078;11.684;2023-08-01T04:05:22;7.45;;;3.90;;
37873;SDS011;23709;48.078;11.684;2023-08-01T04:07:56;6.07;;;4.28;;
37873;SDS011;23709;48.078;11.684;2023-08-01T04:10:29;9.43;;;4.90;;
37873;SDS011;23709;48.078;11.684;2023-08-01T04:13:01;6.78;;;4.20;;
37873;SDS011;23709;48.078;11.684;2023-08-01T04:15:33;13.95;;;5.32;;
37873;SDS011;23709;48.078;11.684;2023-08-01T04:18:05;7.93;;;4.57;;
37873;SDS011;23709;48.078;11.684;2023-08-01T04:20:38;6.57;;;4.78;;
37873;SDS011;23709;48.078;11.684;2023-08-01T04:23:10;10.60;;;4.45;;
37873;SDS011;23709;48.078;11.684;2023-08-01T04:25:43;8.98;;;5.13;;
37873;SDS011;23709;48.078;11.684;2023-08-01T04:28:15;6.90;;;4.50;;
37873;SDS011;23709;48.078;11.684;2023-08-01T04:30:49;6.00;;;4.22;;
37873;SDS011;23709;48.078;11.684;2023-08-01T04:33:23;8.50;;;5.00;;
37873;SDS011;23709;48.078;11.684;2023-08-01T04:35:55;11.40;;;4.78;;
37873;SDS011;23709;48.078;11.684;2023-08-01T04:38:27;8.48;;;4.35;;
37873;SDS011;23709;48.078;11.684;2023-08-01T04:41:00;9.40;;;4.68;;
37873;SDS011;23709;48.078;11.684;2023-08-01T04:43:34;10.10;;;4.88;;
37873;SDS011;23709;48.078;11.684;2023-08-01T04:46:06;7.65;;;4.90;;
37873;SDS011;23709;48.078;11.684;2023-08-01T04:48:40;11.68;;;5.05;;
37873;SDS011;23709;48.078;11.684;2023-08-01T04:51:12;8.77;;;5.32;;
37873;SDS011;23709;48.078;11.684;2023-08-01T04:53:44;8.07;;;4.90;;
37873;SDS011;23709;48.078;11.684;2023-08-01T04:56:17;6.60;;;4.80;;
37873;SDS011;23709;48.078;11.684;2023-08-01T04:58:49;10.70;;;5.22;;
37873;SDS011;23709;48.078;11.684;2023-08-01T05:01:22;11.63;;;5.03;;
37873;SDS011;23709;48.078;11.684;2023-08-01T05:03:54;10.50;;;4.72;;
37873;SDS011;23709;48.078;11.684;2023-08-01T05:06:27;8.85;;;5.57;;
37873;SDS011;23709;48.078;11.684;2023-08-01T05:09:00;8.82;;;5.00;;
37873;SDS011;23709;48.078;11.684;2023-08-01T05:11:32;9.73;;;5.82;;
37873;SDS011;23709;48.078;11.684;2023-08-01T05:14:04;9.68;;;5.30;;
37873;SDS011;23709;48.078;11.684;2023-08-01T05:16:37;11.45;;;5.60;;
37873;SDS011;23709;48.078;11.684;2023-08-01T05:19:10;10.97;;;5.73;;
37873;SDS011;23709;48.078;11.684;2023-08-01T05:21:43;9.67;;;5.50;;
37873;SDS011;23709;48.078;11.684;2023-08-01T05:24:15;9.52;;;5.85;;
37873;SDS011;23709;48.078;11.684;2023-08-01T05:26:47;9.40;;;5.53;;
37873;SDS011;23709;48.078;11.684;2023-08-01T05:29:19;8.30;;;5.35;;
37873;SDS011;23709;48.078;11.684;2023-08-01T05:31:52;7.97;;;5.35;;
37873;SDS011;23709;48.078;11.684;2023-08-01T05:34:24;8.43;;;5.73;;
37873;SDS011;23709;48.078;11.684;2023-08-01T05:37:00;12.07;;;5.63;;
37873;SDS011;23709;48.078;11.684;2023-08-01T05:39:32;7.80;;;5.07;;
37873;SDS011;23709;48.078;11.684;2023-08-01T05:42:05;11.10;;;5.53;;
37873;SDS011;23709;48.078;11.684;2023-08-01T05:44:40;11.77;;;5.82;;
37873;SDS011;23709;48.078;11.684;2023-08-01T05:47:13;7.65;;;5.00;;
37873;SDS011;23709;48.078;11.684;2023-08-01T05:49:45;11.40;;;6.22;;
37873;SDS011;23709;48.078;11.684;2023-08-01T05:52:18;13.13;;;5.65;;
37873;SDS011;23709;48.078;11.684;2023-08-01T05:54:50;11.75;;;5.63;;
37873;SDS011;23709;48.078;11.684;2023-08-01T05:57:22;9.68;;;5.70;;
37873;SDS011;23709;48.078;11.684;2023-08-01T05:59:55;10.52;;;5.43;;
37873;SDS011;23709;48.078;11.684;2023-08-01T06:02:27;11.98;;;5.20;;
37873;SDS011;23709;48.078;11.684;2023-08-01T06:04:59;9.48;;;5.65;;
37873;SDS011;23709;48.078;11.684;2023-08-01T06:07:32;11.30;;;5.22;;
37873;SDS011;23709;48.078;11.684;2023-08-01T06:10:05;10.73;;;4.88;;
37873;SDS011;23709;48.078;11.684;2023-08-01T06:12:38;9.25;;;5.30;;
37873;SDS011;23709;48.078;11.684;2023-08-01T06:15:10;11.00;;;5.57;;
37873;SDS011;23709;48.078;11.684;2023-08-01T06:17:42;6.82;;;4.45;;
37873;SDS011;23709;48.078;11.684;2023-08-01T06:20:15;12.25;;;5.57;;
37873;SDS011;23709;48.078;11.684;2023-08-01T06:22:48;12.97;;;6.10;;
37873;SDS011;23709;48.078;11.684;2023-08-01T06:25:21;11.40;;;5.65;;
37873;SDS011;23709;48.078;11.684;2023-08-01T06:27:53;8.90;;;5.28;;
37873;SDS011;23709;48.078;11.684;2023-08-01T06:30:25;9.02;;;5.15;;
37873;SDS011;23709;48.078;11.684;2023-08-01T06:32:58;8.93;;;5.18;;
37873;SDS011;23709;48.078;11.684;2023-08-01T06:35:31;8.13;;;4.95;;
37873;SDS011;23709;48.078;11.684;2023-08-01T06:38:04;9.05;;;5.10;;
37873;SDS011;23709;48.078;11.684;2023-08-01T06:40:36;10.68;;;5.90;;
37873;SDS011;23709;48.078;11.684;2023-08-01T06:43:08;14.27;;;6.03;;
37873;SDS011;23709;48.078;11.684;2023-08-01T06:45:41;11.50;;;5.38;;
37873;SDS011;23709;48.078;11.684;2023-08-01T06:48:13;11.85;;;5.47;;
37873;SDS011;23709;48.078;11.684;2023-08-01T06:50:46;9.57;;;4.65;;
37873;SDS011;23709;48.078;11.684;2023-08-01T06:53:18;8.27;;;4.85;;
37873;SDS011;23709;48.078;11.684;2023-08-01T06:55:51;8.48;;;5.28;;
37873;SDS011;23709;48.078;11.684;2023-08-01T06:58:24;6.97;;;4.78;;
37873;SDS011;23709;48.078;11.684;2023-08-01T07:00:56;9.73;;;4.97;;
37873;SDS011;23709;48.078;11.684;2023-08-01T07:03:29;10.50;;;4.85;;
37873;SDS011;23709;48.078;11.684;2023-08-01T07:06:01;8.27;;;4.97;;
37873;SDS011;23709;48.078;11.684;2023-08-01T07:08:37;5.57;;;4.13;;
37873;SDS011;23709;48.078;11.684;2023-08-01T07:11:09;7.75;;;4.40;;
37873;SDS011;23709;48.078;11.684;2023-08-01T07:13:42;10.10;;;4.90;;
37873;SDS011;23709;48.078;11.684;2023-08-01T07:16:14;7.20;;;3.95;;
37873;SDS011;23709;48.078;11.684;2023-08-01T07:18:47;12.95;;;4.70;;
37873;SDS011;23709;48.078;11.684;2023-08-01T07:21:20;12.50;;;4.70;;
37873;SDS011;23709;48.078;11.684;2023-08-01T07:23:52;8.68;;;4.95;;
37873;SDS011;23709;48.078;11.684;2023-08-01T07:26:25;11.45;;;5.00;;
37873;SDS011;23709;48.078;11.684;2023-08-01T07:28:58;8.18;;;4.55;;
37873;SDS011;23709;48.078;11.684;2023-08-01T07:31:30;9.77;;;4.63;;
37873;SDS011;23709;48.078;11.684;2023-08-01T07:34:02;10.15;;;4.63;;
37873;SDS011;23709;48.078;11.684;2023-08-01T07:36:35;7.63;;;3.83;;
37873;SDS011;23709;48.078;11.684;2023-08-01T07:39:07;8.00;;;4.38;;
37873;SDS011;23709;48.078;11.684;2023-08-01T07:41:40;6.97;;;4.25;;
37873;SDS011;23709;48.078;11.684;2023-08-01T07:44:12;6.78;;;3.60;;
37873;SDS011;23709;48.078;11.684;2023-08-01T07:46:45;6.50;;;3.78;;
37873;SDS011;23709;48.078;11.684;2023-08-01T07:49:18;5.82;;;3.45;;
37873;SDS011;23709;48.078;11.684;2023-08-01T07:51:50;7.47;;;3.77;;
37873;SDS011;23709;48.078;11.684;2023-08-01T07:54:28;7.53;;;4.43;;
37873;SDS011;23709;48.078;11.684;2023-08-01T07:57:00;6.18;;;4.18;;
37873;SDS011;23709;48.078;11.684;2023-08-01T07:59:32;6.93;;;4.28;;
37873;SDS011;23709;48.078;11.684;2023-08-01T08:02:04;7.47;;;4.55;;
37873;SDS011;23709;48.078;11.684;2023-08-01T08:04:37;8.07;;;4.30;;
37873;SDS011;23709;48.078;11.684;2023-08-01T08:07:09;9.20;;;4.07;;
37873;SDS011;23709;48.078;11.684;2023-08-01T08:09:42;8.30;;;4.82;;
37873;SDS011;23709;48.078;11.684;2023-08-01T08:12:15;7.88;;;4.35;;
37873;SDS011;23709;48.078;11.684;2023-08-01T08:14:47;7.57;;;5.25;;
37873;SDS011;23709;48.078;11.684;2023-08-01T08:17:19;7.65;;;4.82;;
37873;SDS011;23709;48.078;11.684;2023-08-01T08:19:51;10.18;;;4.68;;
37873;SDS011;23709;48.078;11.684;2023-08-01T08:22:24;6.32;;;4.05;;
37873;SDS011;23709;48.078;11.684;2023-08-01T08:24:57;8.32;;;4.38;;
37873;SDS011;23709;48.078;11.684;2023-08-01T08:27:29;9.18;;;4.50;;
37873;SDS011;23709;48.078;11.684;2023-08-01T08:30:01;10.93;;;5.18;;
37873;SDS011;23709;48.078;11.684;2023-08-01T08:32:35;6.73;;;4.60;;
37873;SDS011;23709;48.078;11.684;2023-08-01T08:35:07;8.38;;;4.57;;
37873;SDS011;23709;48.078;11.684;2023-08-01T08:37:39;7.28;;;4.13;;
37873;SDS011;23709;48.078;11.684;2023-08-01T08:40:13;9.93;;;4.57;;
37873;SDS011;23709;48.078;11.684;2023-08-01T08:42:46;7.22;;;4.63;;
37873;SDS011;23709;48.078;11.684;2023-08-01T08:47:55;8.55;;;4.90;;
37873;SDS011;23709;48.078;11.684;2023-08-01T08:50:33;7.68;;;4.50;;
37873;SDS011;23709;48.078;11.684;2023-08-01T08:53:07;10.23;;;4.68;;
37873;SDS011;23709;48.078;11.684;2023-08-01T08:55:44;7.82;;;5.07;;
37873;SDS011;23709;48.078;11.684;2023-08-01T08:58:17;7.88;;;4.53;;
37873;SDS011;23709;48.078;11.684;2023-08-01T09:00:49;8.60;;;4.93;;
37873;SDS011;23709;48.078;11.684;2023-08-01T09:03:22;8.88;;;4.90;;
37873;SDS011;23709;48.078;11.684;2023-08-01T09:05:59;9.55;;;5.10;;
37873;SDS011;23709;48.078;11.684;2023-08-01T09:08:41;15.18;;;4.65;;
37873;SDS011;23709;48.078;11.684;2023-08-01T09:11:26;9.43;;;4.90;;
37873;SDS011;23709;48.078;11.684;2023-08-01T09:13:59;7.67;;;4.80;;
37873;SDS011;23709;48.078;11.684;2023-08-01T09:16:32;6.38;;;4.63;;
37873;SDS011;23709;48.078;11.684;2023-08-01T09:19:07;7.38;;;4.78;;
37873;SDS011;23709;48.078;11.684;2023-08-01T09:21:40;8.75;;;4.90;;
37873;SDS011;23709;48.078;11.684;2023-08-01T09:24:17;9.10;;;4.90;;
37873;SDS011;23709;48.078;11.684;2023-08-01T09:27:01;7.43;;;4.80;;
37873;SDS011;23709;48.078;11.684;2023-08-01T09:29:38;14.20;;;5.72;;
37873;SDS011;23709;48.078;11.684;2023-08-01T09:32:11;7.97;;;5.13;;
37873;SDS011;23709;48.078;11.684;2023-08-01T09:34:45;9.75;;;5.32;;
37873;SDS011;23709;48.078;11.684;2023-08-01T09:37:17;9.20;;;5.40;;
37873;SDS011;23709;48.078;11.684;2023-08-01T09:39:54;10.25;;;5.03;;
37873;SDS011;23709;48.078;11.684;2023-08-01T09:45:13;8.82;;;4.80;;
37873;SDS011;23709;48.078;11.684;2023-08-01T09:47:46;9.82;;;5.47;;
37873;SDS011;23709;48.078;11.684;2023-08-01T09:50:21;8.65;;;5.47;;
37873;SDS011;23709;48.078;11.684;2023-08-01T09:53:06;8.45;;;4.63;;
37873;SDS011;23709;48.078;11.684;2023-08-01T09:55:39;7.60;;;5.10;;
37873;SDS011;23709;48.078;11.684;2023-08-01T09:58:14;9.02;;;5.30;;
37873;SDS011;23709;48.078;11.684;2023-08-01T10:00:53;8.67;;;5.03;;
37873;SDS011;23709;48.078;11.684;2023-08-01T10:03:26;10.60;;;5.23;;
37873;SDS011;23709;48.078;11.684;2023-08-01T10:06:00;9.05;;;4.82;;
37873;SDS011;23709;48.078;11.684;2023-08-01T10:08:33;11.18;;;5.15;;
37873;SDS011;23709;48.078;11.684;2023-08-01T10:11:07;9.07;;;4.90;;
37873;SDS011;23709;48.078;11.684;2023-08-01T10:13:41;9.55;;;4.82;;
37873;SDS011;23709;48.078;11.684;2023-08-01T10:16:15;7.85;;;4.68;;
37873;SDS011;23709;48.078;11.684;2023-08-01T10:18:48;9.10;;;4.55;;
37873;SDS011;23709;48.078;11.684;2023-08-01T10:21:22;8.52;;;4.80;;
37873;SDS011;23709;48.078;11.684;2023-08-01T10:26:30;8.38;;;5.03;;
37873;SDS011;23709;48.078;11.684;2023-08-01T10:29:03;11.52;;;5.07;;
37873;SDS011;23709;48.078;11.684;2023-08-01T10:31:35;11.05;;;4.60;;
37873;SDS011;23709;48.078;11.684;2023-08-01T10:34:14;8.43;;;4.53;;
37873;SDS011;23709;48.078;11.684;2023-08-01T10:36:56;9.10;;;4.80;;
37873;SDS011;23709;48.078;11.684;2023-08-01T10:39:30;9.75;;;4.70;;
37873;SDS011;23709;48.078;11.684;2023-08-01T10:42:04;10.48;;;4.57;;
37873;SDS011;23709;48.078;11.684;2023-08-01T10:44:44;8.65;;;4.13;;
37873;SDS011;23709;48.078;11.684;2023-08-01T10:47:26;7.30;;;4.13;;
37873;SDS011;23709;48.078;11.684;2023-08-01T10:49:59;6.32;;;3.85;;
37873;SDS011;23709;48.078;11.684;2023-08-01T10:52:32;8.88;;;3.80;;
37873;SDS011;23709;48.078;11.684;2023-08-01T10:55:05;7.47;;;4.35;;
37873;SDS011;23709;48.078;11.684;2023-08-01T10:57:39;12.77;;;4.13;;
37873;SDS011;23709;48.078;11.684;2023-08-01T11:00:20;7.75;;;4.50;;
37873;SDS011;23709;48.078;11.684;2023-08-01T11:02:52;7.32;;;4.13;;
37873;SDS011;23709;48.078;11.684;2023-08-01T11:05:25;8.88;;;4.57;;
37873;SDS011;23709;48.078;11.684;2023-08-01T11:08:01;5.38;;;3.67;;
37873;SDS011;23709;48.078;11.684;2023-08-01T11:10:34;7.03;;;4.03;;
37873;SDS011;23709;48.078;11.684;2023-08-01T11:13:10;6.00;;;2.95;;
37873;SDS011;23709;48.078;11.684;2023-08-01T11:15:43;5.50;;;3.58;;
37873;SDS011;23709;48.078;11.684;2023-08-01T11:18:16;8.55;;;4.13;;
37873;SDS011;23709;48.078;11.684;2023-08-01T11:20:49;5.87;;;3.40;;
37873;SDS011;23709;48.078;11.684;2023-08-01T11:23:29;7.10;;;3.42;;
37873;SDS011;23709;48.078;11.684;2023-08-01T11:26:08;5.72;;;3.53;;
37873;SDS011;23709;48.078;11.684;2023-08-01T11:28:41;7.30;;;3.63;;
37873;SDS011;23709;48.078;11.684;2023-08-01T11:31:16;4.70;;;3.13;;
37873;SDS011;23709;48.078;11.684;2023-08-01T11:33:56;7.43;;;3.15;;
37873;SDS011;23709;48.078;11.684;2023-08-01T11:36:29;4.95;;;3.20;;
37873;SDS011;23709;48.078;11.684;2023-08-01T11:39:02;5.95;;;2.70;;
37873;SDS011;23709;48.078;11.684;2023-08-01T11:41:35;5.05;;;3.08;;
37873;SDS011;23709;48.078;11.684;2023-08-01T11:44:08;5.05;;;2.80;;
37873;SDS011;23709;48.078;11.684;2023-08-01T11:46:42;7.00;;;3.05;;
37873;SDS011;23709;48.078;11.684;2023-08-01T11:49:16;4.95;;;2.92;;
37873;SDS011;23709;48.078;11.684;2023-08-01T11:51:49;4.60;;;2.90;;
37873;SDS011;23709;48.078;11.684;2023-08-01T11:54:22;5.78;;;3.45;;
37873;SDS011;23709;48.078;11.684;2023-08-01T11:57:00;4.93;;;3.30;;
37873;SDS011;23709;48.078;11.684;2023-08-01T11:59:33;6.35;;;2.90;;
37873;SDS011;23709;48.078;11.684;2023-08-01T12:02:06;6.05;;;3.00;;
37873;SDS011;23709;48.078;11.684;2023-08-01T12:04:39;9.40;;;3.30;;
37873;SDS011;23709;48.078;11.684;2023-08-01T12:07:12;6.37;;;4.13;;
37873;SDS011;23709;48.078;11.684;2023-08-01T12:09:59;5.53;;;3.45;;
37873;SDS011;23709;48.078;11.684;2023-08-01T12:12:32;6.90;;;3.58;;
37873;SDS011;23709;48.078;11.684;2023-08-01T12:15:05;4.78;;;3.35;;
37873;SDS011;23709;48.078;11.684;2023-08-01T12:17:38;6.13;;;3.70;;
37873;SDS011;23709;48.078;11.684;2023-08-01T12:20:11;7.80;;;3.50;;
37873;SDS011;23709;48.078;11.684;2023-08-01T12:22:43;6.07;;;3.42;;
37873;SDS011;23709;48.078;11.684;2023-08-01T12:25:16;7.90;;;3.80;;
37873;SDS011;23709;48.078;11.684;2023-08-01T12:27:49;7.05;;;3.70;;
37873;SDS011;23709;48.078;11.684;2023-08-01T12:30:22;5.80;;;3.67;;
37873;SDS011;23709;48.078;11.684;2023-08-01T12:32:55;6.85;;;3.45;;
37873;SDS011;23709;48.078;11.684;2023-08-01T12:35:28;5.65;;;3.15;;
37873;SDS011;23709;48.078;11.684;2023-08-01T12:38:01;5.30;;;3.03;;
37873;SDS011;23709;48.078;11.684;2023-08-01T12:40:33;6.43;;;3.13;;
37873;SDS011;23709;48.078;11.684;2023-08-01T12:43:09;4.78;;;3.08;;
37873;SDS011;23709;48.078;11.684;2023-08-01T12:45:42;4.33;;;3.10;;
37873;SDS011;23709;48.078;11.684;2023-08-01T12:48:15;5.25;;;2.65;;
37873;SDS011;23709;48.078;11.684;2023-08-01T12:50:48;4.40;;;2.87;;
37873;SDS011;23709;48.078;11.684;2023-08-01T12:53:21;4.60;;;2.72;;
37873;SDS011;23709;48.078;11.684;2023-08-01T12:55:57;4.88;;;2.30;;
37873;SDS011;23709;48.078;11.684;2023-08-01T12:58:31;3.38;;;2.40;;
37873;SDS011;23709;48.078;11.684;2023-08-01T13:01:04;3.75;;;2.50;;
37873;SDS011;23709;48.078;11.684;2023-08-01T13:03:37;4.68;;;2.90;;
37873;SDS011;23709;48.078;11.684;2023-08-01T13:06:11;4.38;;;2.75;;
37873;SDS011;23709;48.078;11.684;2023-08-01T13:08:47;3.20;;;1.98;;
37873;SDS011;23709;48.078;11.684;2023-08-01T13:11:19;3.38;;;2.22;;
37873;SDS011;23709;48.078;11.684;2023-08-01T13:16:25;3.75;;;1.90;;
37873;SDS011;23709;48.078;11.684;2023-08-01T13:18:59;5.18;;;2.38;;
37873;SDS011;23709;48.078;11.684;2023-08-01T13:21:31;3.90;;;1.93;;
37873;SDS011;23709;48.078;11.684;2023-08-01T13:24:05;4.35;;;2.45;;
37873;SDS011;23709;48.078;11.684;2023-08-01T13:26:38;2.87;;;2.00;;
37873;SDS011;23709;48.078;11.684;2023-08-01T13:29:11;3.42;;;2.42;;
37873;SDS011;23709;48.078;11.684;2023-08-01T13:31:44;3.03;;;2.17;;
37873;SDS011;23709;48.078;11.684;2023-08-01T13:34:17;3.53;;;2.40;;
37873;SDS011;23709;48.078;11.684;2023-08-01T13:36:49;3.07;;;2.20;;
37873;SDS011;23709;48.078;11.684;2023-08-01T13:39:22;3.00;;;2.17;;
37873;SDS011;23709;48.078;11.684;2023-08-01T13:41:55;4.30;;;2.60;;
37873;SDS011;23709;48.078;11.684;2023-08-01T13:44:28;3.07;;;2.30;;
37873;SDS011;23709;48.078;11.684;2023-08-01T13:47:00;4.82;;;2.47;;
37873;SDS011;23709;48.078;11.684;2023-08-01T13:49:35;3.95;;;2.70;;
37873;SDS011;23709;48.078;11.684;2023-08-01T13:52:08;4.95;;;2.60;;
37873;SDS011;23709;48.078;11.684;2023-08-01T13:54:41;4.45;;;2.42;;
37873;SDS011;23709;48.078;11.684;2023-08-01T13:57:14;5.25;;;2.55;;
37873;SDS011;23709;48.078;11.684;2023-08-01T13:59:47;3.10;;;2.35;;
37873;SDS011;23709;48.078;11.684;2023-08-01T14:02:41;4.30;;;2.38;;
37873;SDS011;23709;48.078;11.684;2023-08-01T14:05:15;3.70;;;2.70;;
37873;SDS011;23709;48.078;11.684;2023-08-01T14:07:47;5.68;;;3.60;;
37873;SDS011;23709;48.078;11.684;2023-08-01T14:10:20;5.38;;;2.33;;
37873;SDS011;23709;48.078;11.684;2023-08-01T14:12:54;4.20;;;2.83;;
37873;SDS011;23709;48.078;11.684;2023-08-01T14:15:26;4.38;;;2.63;;
37873;SDS011;23709;48.078;11.684;2023-08-01T14:17:59;4.25;;;2.22;;
37873;SDS011;23709;48.078;11.684;2023-08-01T14:20:32;2.92;;;2.22;;
37873;SDS011;23709;48.078;11.684;2023-08-01T14:23:05;3.90;;;2.70;;
37873;SDS011;23709;48.078;11.684;2023-08-01T14:25:38;7.47;;;2.60;;
37873;SDS011;23709;48.078;11.684;2023-08-01T14:28:11;5.60;;;2.33;;
37873;SDS011;23709;48.078;11.684;2023-08-01T14:30:43;13.40;;;2.78;;
37873;SDS011;23709;48.078;11.684;2023-08-01T14:33:16;3.17;;;2.53;;
37873;SDS011;23709;48.078;11.684;2023-08-01T14:35:53;3.78;;;2.25;;
37873;SDS011;23709;48.078;11.684;2023-08-01T14:38:25;4.83;;;2.70;;
37873;SDS011;23709;48.078;11.684;2023-08-01T14:40:58;3.83;;;2.00;;
37873;SDS011;23709;48.078;11.684;2023-08-01T14:43:45;4.53;;;2.25;;
37873;SDS011;23709;48.078;11.684;2023-08-01T14:46:17;5.72;;;1.98;;
37873;SDS011;23709;48.078;11.684;2023-08-01T14:48:50;3.17;;;2.05;;
37873;SDS011;23709;48.078;11.684;2023-08-01T14:51:22;2.90;;;1.90;;
37873;SDS011;23709;48.078;11.684;2023-08-01T14:53:54;3.20;;;1.60;;
37873;SDS011;23709;48.078;11.684;2023-08-01T14:56:27;3.27;;;1.63;;
37873;SDS011;23709;48.078;11.684;2023-08-01T14:58:59;1.80;;;1.60;;
37873;SDS011;23709;48.078;11.684;2023-08-01T15:01:32;2.55;;;1.85;;
37873;SDS011;23709;48.078;11.684;2023-08-01T15:04:05;2.50;;;1.40;;
37873;SDS011;23709;48.078;11.684;2023-08-01T15:06:38;2.92;;;1.63;;
37873;SDS011;23709;48.078;11.684;2023-08-01T15:09:11;1.80;;;1.40;;
37873;SDS011;23709;48.078;11.684;2023-08-01T15:11:44;1.67;;;1.58;;
37873;SDS011;23709;48.078;11.684;2023-08-01T15:14:19;2.97;;;1.48;;
37873;SDS011;23709;48.078;11.684;2023-08-01T15:16:52;2.30;;;1.57;;
37873;SDS011;23709;48.078;11.684;2023-08-01T15:19:24;3.75;;;1.25;;
37873;SDS011;23709;48.078;11.684;2023-08-01T15:21:56;2.65;;;1.42;;
37873;SDS011;23709;48.078;11.684;2023-08-01T15:24:29;4.30;;;1.52;;
37873;SDS011;23709;48.078;11.684;2023-08-01T15:27:02;7.10;;;1.52;;